sensor_id;sensor_type;location;lat;lon;timestamp;P1;durP1;ratioP1;P2;durP2;ratioP2
3329;SDS011;1677;49.576;10.990;2023-04-25T00:01:38;4.10;;;3.70;;
3329;SDS011;1677;49.576;10.990;2023-04-25T00:04:03;5.97;;;3.33;;
3329;SDS011;1677;49.576;10.990;2023-04-25T00:06:32;4.60;;;3.28;;
3329;SDS011;1677;49.576;10.990;2023-04-25T00:09:01;3.40;;;3.10;;
3329;SDS011;1677;49.576;10.990;2023-04-25T00:11:32;4.28;;;3.88;;
3329;SDS011;1677;49.576;10.990;2023-04-25T00:13:58;3.57;;;3.10;;
3329;SDS011;1677;49.576;10.990;2023-04-25T00:16:24;4.35;;;3.58;;
3329;SDS011;1677;49.576;10.990;2023-04-25T00:18:50;4.00;;;3.60;;
3329;SDS011;1677;49.576;10.990;2023-04-25T00:21:18;4.13;;;3.60;;
3329;SDS011;1677;49.576;10.990;2023-04-25T00:23:45;3.65;;;3.28;;
3329;SDS011;1677;49.576;10.990;2023-04-25T00:26:11;3.63;;;3.25;;
3329;SDS011;1677;49.576;10.990;2023-04-25T00:28:37;3.93;;;3.53;;
3329;SDS011;1677;49.576;10.990;2023-04-25T00:31:03;3.42;;;3.03;;
3329;SDS011;1677;49.576;10.990;2023-04-25T00:33:29;4.07;;;3.67;;
3329;SDS011;1677;49.576;10.990;2023-04-25T00:35:55;4.47;;;3.00;;
3329;SDS011;1677;49.576;10.990;2023-04-25T00:38:21;3.80;;;3.17;;
3329;SDS011;1677;49.576;10.990;2023-04-25T00:40:46;3.30;;;2.93;;
3329;SDS011;1677;49.576;10.990;2023-04-25T00:43:12;4.20;;;3.20;;
3329;SDS011;1677;49.576;10.990;2023-04-25T00:45:38;6.20;;;3.10;;
3329;SDS011;1677;49.576;10.990;2023-04-25T00:48:04;3.40;;;2.85;;
3329;SDS011;1677;49.576;10.990;2023-04-25T00:50:30;3.13;;;2.83;;
3329;SDS011;1677;49.576;10.990;2023-04-25T00:53:01;3.95;;;3.30;;
3329;SDS011;1677;49.576;10.990;2023-04-25T00:55:28;4.05;;;3.38;;
3329;SDS011;1677;49.576;10.990;2023-04-25T00:57:54;4.85;;;3.42;;
3329;SDS011;1677;49.576;10.990;2023-04-25T01:00:19;4.07;;;3.10;;
3329;SDS011;1677;49.576;10.990;2023-04-25T01:02:45;3.40;;;3.10;;
3329;SDS011;1677;49.576;10.990;2023-04-25T01:05:11;2.85;;;2.65;;
3329;SDS011;1677;49.576;10.990;2023-04-25T01:07:38;5.25;;;3.53;;
3329;SDS011;1677;49.576;10.990;2023-04-25T01:10:04;3.63;;;3.33;;
3329;SDS011;1677;49.576;10.990;2023-04-25T01:12:31;3.20;;;2.90;;
3329;SDS011;1677;49.576;10.990;2023-04-25T01:14:56;4.63;;;3.50;;
3329;SDS011;1677;49.576;10.990;2023-04-25T01:17:22;4.03;;;3.63;;
3329;SDS011;1677;49.576;10.990;2023-04-25T01:19:48;5.63;;;3.67;;
3329;SDS011;1677;49.576;10.990;2023-04-25T01:22:15;3.38;;;3.05;;
3329;SDS011;1677;49.576;10.990;2023-04-25T01:24:41;3.78;;;3.40;;
3329;SDS011;1677;49.576;10.990;2023-04-25T01:27:07;5.30;;;3.40;;
3329;SDS011;1677;49.576;10.990;2023-04-25T01:29:34;3.15;;;2.83;;
3329;SDS011;1677;49.576;10.990;2023-04-25T01:32:01;3.75;;;3.40;;
3329;SDS011;1677;49.576;10.990;2023-04-25T01:34:27;4.63;;;3.58;;
3329;SDS011;1677;49.576;10.990;2023-04-25T01:36:52;4.63;;;3.87;;
3329;SDS011;1677;49.576;10.990;2023-04-25T01:39:18;3.85;;;3.10;;
3329;SDS011;1677;49.576;10.990;2023-04-25T01:41:47;4.95;;;3.67;;
3329;SDS011;1677;49.576;10.990;2023-04-25T01:44:13;3.65;;;3.00;;
3329;SDS011;1677;49.576;10.990;2023-04-25T01:46:39;4.82;;;3.78;;
3329;SDS011;1677;49.576;10.990;2023-04-25T01:49:05;4.43;;;3.00;;
3329;SDS011;1677;49.576;10.990;2023-04-25T01:51:31;5.80;;;4.13;;
3329;SDS011;1677;49.576;10.990;2023-04-25T01:53:57;3.50;;;3.20;;
3329;SDS011;1677;49.576;10.990;2023-04-25T01:56:23;6.57;;;4.03;;
3329;SDS011;1677;49.576;10.990;2023-04-25T01:58:48;4.60;;;4.00;;
3329;SDS011;1677;49.576;10.990;2023-04-25T02:01:14;3.73;;;3.23;;
3329;SDS011;1677;49.576;10.990;2023-04-25T02:03:40;4.57;;;3.27;;
3329;SDS011;1677;49.576;10.990;2023-04-25T02:06:05;3.50;;;3.20;;
3329;SDS011;1677;49.576;10.990;2023-04-25T02:08:31;3.80;;;3.50;;
3329;SDS011;1677;49.576;10.990;2023-04-25T02:10:57;5.70;;;3.77;;
3329;SDS011;1677;49.576;10.990;2023-04-25T02:13:22;3.67;;;3.33;;
3329;SDS011;1677;49.576;10.990;2023-04-25T02:15:48;4.27;;;3.60;;
3329;SDS011;1677;49.576;10.990;2023-04-25T02:18:14;4.17;;;3.63;;
3329;SDS011;1677;49.576;10.990;2023-04-25T02:20:41;4.50;;;3.88;;
3329;SDS011;1677;49.576;10.990;2023-04-25T02:23:07;4.30;;;3.90;;
3329;SDS011;1677;49.576;10.990;2023-04-25T02:25:32;4.53;;;3.60;;
3329;SDS011;1677;49.576;10.990;2023-04-25T02:27:58;4.30;;;3.90;;
3329;SDS011;1677;49.576;10.990;2023-04-25T02:30:23;3.80;;;3.40;;
3329;SDS011;1677;49.576;10.990;2023-04-25T02:32:49;4.17;;;3.73;;
3329;SDS011;1677;49.576;10.990;2023-04-25T02:35:14;4.20;;;3.70;;
3329;SDS011;1677;49.576;10.990;2023-04-25T02:37:40;4.23;;;3.43;;
3329;SDS011;1677;49.576;10.990;2023-04-25T02:40:07;4.70;;;4.30;;
3329;SDS011;1677;49.576;10.990;2023-04-25T02:42:33;7.05;;;3.92;;
3329;SDS011;1677;49.576;10.990;2023-04-25T02:44:59;4.43;;;4.03;;
3329;SDS011;1677;49.576;10.990;2023-04-25T02:47:24;3.70;;;3.40;;
3329;SDS011;1677;49.576;10.990;2023-04-25T02:49:50;4.60;;;4.20;;
3329;SDS011;1677;49.576;10.990;2023-04-25T02:52:16;4.90;;;4.00;;
3329;SDS011;1677;49.576;10.990;2023-04-25T02:54:41;4.83;;;3.70;;
3329;SDS011;1677;49.576;10.990;2023-04-25T02:57:07;9.10;;;4.47;;
3329;SDS011;1677;49.576;10.990;2023-04-25T02:59:33;4.80;;;4.10;;
3329;SDS011;1677;49.576;10.990;2023-04-25T03:01:59;4.95;;;4.40;;
3329;SDS011;1677;49.576;10.990;2023-04-25T03:04:24;4.97;;;3.57;;
3329;SDS011;1677;49.576;10.990;2023-04-25T03:06:50;5.50;;;4.10;;
3329;SDS011;1677;49.576;10.990;2023-04-25T03:09:16;4.40;;;3.97;;
3329;SDS011;1677;49.576;10.990;2023-04-25T03:11:44;3.80;;;3.40;;
3329;SDS011;1677;49.576;10.990;2023-04-25T03:14:10;7.20;;;4.63;;
3329;SDS011;1677;49.576;10.990;2023-04-25T03:16:36;5.28;;;3.85;;
3329;SDS011;1677;49.576;10.990;2023-04-25T03:19:02;5.33;;;3.87;;
3329;SDS011;1677;49.576;10.990;2023-04-25T03:21:28;5.03;;;4.32;;
3329;SDS011;1677;49.576;10.990;2023-04-25T03:23:56;4.57;;;3.42;;
3329;SDS011;1677;49.576;10.990;2023-04-25T03:26:22;5.43;;;4.37;;
3329;SDS011;1677;49.576;10.990;2023-04-25T03:28:48;4.73;;;4.00;;
3329;SDS011;1677;49.576;10.990;2023-04-25T03:31:13;6.60;;;4.40;;
3329;SDS011;1677;49.576;10.990;2023-04-25T03:33:39;6.00;;;4.43;;
3329;SDS011;1677;49.576;10.990;2023-04-25T03:36:04;4.40;;;3.63;;
3329;SDS011;1677;49.576;10.990;2023-04-25T03:38:30;5.55;;;3.80;;
3329;SDS011;1677;49.576;10.990;2023-04-25T03:40:56;6.53;;;4.20;;
3329;SDS011;1677;49.576;10.990;2023-04-25T03:43:21;5.10;;;4.50;;
3329;SDS011;1677;49.576;10.990;2023-04-25T03:45:47;4.90;;;4.47;;
3329;SDS011;1677;49.576;10.990;2023-04-25T03:48:12;4.37;;;3.90;;
3329;SDS011;1677;49.576;10.990;2023-04-25T03:50:38;4.90;;;4.00;;
3329;SDS011;1677;49.576;10.990;2023-04-25T03:53:04;4.90;;;4.37;;
3329;SDS011;1677;49.576;10.990;2023-04-25T03:55:29;5.80;;;4.37;;
3329;SDS011;1677;49.576;10.990;2023-04-25T03:57:55;6.93;;;5.43;;
3329;SDS011;1677;49.576;10.990;2023-04-25T04:00:22;5.07;;;4.50;;
3329;SDS011;1677;49.576;10.990;2023-04-25T04:02:49;4.75;;;4.25;;
3329;SDS011;1677;49.576;10.990;2023-04-25T04:05:14;6.23;;;4.70;;
3329;SDS011;1677;49.576;10.990;2023-04-25T04:07:40;7.73;;;4.67;;
3329;SDS011;1677;49.576;10.990;2023-04-25T04:10:07;6.18;;;5.57;;
3329;SDS011;1677;49.576;10.990;2023-04-25T04:12:34;7.07;;;5.70;;
3329;SDS011;1677;49.576;10.990;2023-04-25T04:15:00;5.97;;;5.00;;
3329;SDS011;1677;49.576;10.990;2023-04-25T04:17:26;5.95;;;5.38;;
3329;SDS011;1677;49.576;10.990;2023-04-25T04:19:51;5.80;;;5.17;;
3329;SDS011;1677;49.576;10.990;2023-04-25T04:22:17;8.53;;;5.50;;
3329;SDS011;1677;49.576;10.990;2023-04-25T04:24:42;6.10;;;5.50;;
3329;SDS011;1677;49.576;10.990;2023-04-25T04:27:11;6.63;;;5.25;;
3329;SDS011;1677;49.576;10.990;2023-04-25T04:29:37;7.75;;;5.07;;
3329;SDS011;1677;49.576;10.990;2023-04-25T04:32:03;5.03;;;4.53;;
3329;SDS011;1677;49.576;10.990;2023-04-25T04:34:29;5.90;;;5.30;;
3329;SDS011;1677;49.576;10.990;2023-04-25T04:36:56;6.95;;;5.57;;
3329;SDS011;1677;49.576;10.990;2023-04-25T04:39:21;6.13;;;5.53;;
3329;SDS011;1677;49.576;10.990;2023-04-25T04:41:47;5.90;;;4.70;;
3329;SDS011;1677;49.576;10.990;2023-04-25T04:44:13;4.83;;;4.23;;
3329;SDS011;1677;49.576;10.990;2023-04-25T04:46:39;6.45;;;4.22;;
3329;SDS011;1677;49.576;10.990;2023-04-25T04:49:08;4.50;;;3.90;;
3329;SDS011;1677;49.576;10.990;2023-04-25T04:51:34;4.75;;;3.90;;
3329;SDS011;1677;49.576;10.990;2023-04-25T04:53:59;4.73;;;3.80;;
3329;SDS011;1677;49.576;10.990;2023-04-25T04:56:27;5.05;;;4.65;;
3329;SDS011;1677;49.576;10.990;2023-04-25T04:58:54;4.22;;;3.80;;
3329;SDS011;1677;49.576;10.990;2023-04-25T05:01:20;4.93;;;4.37;;
3329;SDS011;1677;49.576;10.990;2023-04-25T05:03:45;4.47;;;4.03;;
3329;SDS011;1677;49.576;10.990;2023-04-25T05:06:11;4.23;;;3.63;;
3329;SDS011;1677;49.576;10.990;2023-04-25T05:08:36;5.43;;;4.10;;
3329;SDS011;1677;49.576;10.990;2023-04-25T05:11:02;4.83;;;4.07;;
3329;SDS011;1677;49.576;10.990;2023-04-25T05:13:27;5.20;;;4.30;;
3329;SDS011;1677;49.576;10.990;2023-04-25T05:15:53;5.17;;;4.67;;
3329;SDS011;1677;49.576;10.990;2023-04-25T05:18:19;3.83;;;3.43;;
3329;SDS011;1677;49.576;10.990;2023-04-25T05:20:44;4.03;;;3.47;;
3329;SDS011;1677;49.576;10.990;2023-04-25T05:23:10;4.33;;;3.10;;
3329;SDS011;1677;49.576;10.990;2023-04-25T05:25:35;3.50;;;3.20;;
3329;SDS011;1677;49.576;10.990;2023-04-25T05:28:01;4.03;;;3.63;;
3329;SDS011;1677;49.576;10.990;2023-04-25T05:30:27;4.90;;;3.20;;
3329;SDS011;1677;49.576;10.990;2023-04-25T05:32:52;3.97;;;3.33;;
3329;SDS011;1677;49.576;10.990;2023-04-25T05:35:18;5.70;;;3.17;;
3329;SDS011;1677;49.576;10.990;2023-04-25T05:37:43;6.10;;;4.20;;
3329;SDS011;1677;49.576;10.990;2023-04-25T05:40:09;8.38;;;3.75;;
3329;SDS011;1677;49.576;10.990;2023-04-25T05:42:35;4.73;;;3.33;;
3329;SDS011;1677;49.576;10.990;2023-04-25T05:45:00;3.50;;;3.20;;
3329;SDS011;1677;49.576;10.990;2023-04-25T05:47:26;5.05;;;3.50;;
3329;SDS011;1677;49.576;10.990;2023-04-25T05:49:52;4.30;;;3.60;;
3329;SDS011;1677;49.576;10.990;2023-04-25T05:52:17;5.77;;;3.33;;
3329;SDS011;1677;49.576;10.990;2023-04-25T05:54:43;6.40;;;5.10;;
3329;SDS011;1677;49.576;10.990;2023-04-25T05:57:14;4.13;;;3.73;;
3329;SDS011;1677;49.576;10.990;2023-04-25T05:59:47;4.57;;;3.95;;
3329;SDS011;1677;49.576;10.990;2023-04-25T06:02:13;4.23;;;3.50;;
3329;SDS011;1677;49.576;10.990;2023-04-25T06:04:38;4.70;;;4.20;;
3329;SDS011;1677;49.576;10.990;2023-04-25T06:07:04;4.30;;;3.90;;
3329;SDS011;1677;49.576;10.990;2023-04-25T06:09:29;4.60;;;4.20;;
3329;SDS011;1677;49.576;10.990;2023-04-25T06:11:55;6.10;;;5.13;;
3329;SDS011;1677;49.576;10.990;2023-04-25T06:14:20;6.07;;;4.30;;
3329;SDS011;1677;49.576;10.990;2023-04-25T06:16:46;5.33;;;3.90;;
3329;SDS011;1677;49.576;10.990;2023-04-25T06:19:11;9.93;;;6.07;;
3329;SDS011;1677;49.576;10.990;2023-04-25T06:21:37;9.93;;;4.13;;
3329;SDS011;1677;49.576;10.990;2023-04-25T06:24:03;4.73;;;4.27;;
3329;SDS011;1677;49.576;10.990;2023-04-25T06:26:28;4.90;;;4.00;;
3329;SDS011;1677;49.576;10.990;2023-04-25T06:28:54;6.70;;;4.40;;
3329;SDS011;1677;49.576;10.990;2023-04-25T06:31:20;6.27;;;4.07;;
3329;SDS011;1677;49.576;10.990;2023-04-25T06:33:45;6.17;;;4.37;;
3329;SDS011;1677;49.576;10.990;2023-04-25T06:36:13;10.50;;;4.55;;
3329;SDS011;1677;49.576;10.990;2023-04-25T06:38:38;6.97;;;5.10;;
3329;SDS011;1677;49.576;10.990;2023-04-25T06:41:04;8.13;;;4.13;;
3329;SDS011;1677;49.576;10.990;2023-04-25T06:43:30;6.05;;;5.22;;
3329;SDS011;1677;49.576;10.990;2023-04-25T06:45:58;6.15;;;5.03;;
3329;SDS011;1677;49.576;10.990;2023-04-25T06:48:25;7.70;;;5.38;;
3329;SDS011;1677;49.576;10.990;2023-04-25T06:50:51;6.90;;;5.20;;
3329;SDS011;1677;49.576;10.990;2023-04-25T06:53:16;7.00;;;5.37;;
3329;SDS011;1677;49.576;10.990;2023-04-25T06:55:42;5.03;;;4.53;;
3329;SDS011;1677;49.576;10.990;2023-04-25T06:58:08;4.13;;;3.67;;
3329;SDS011;1677;49.576;10.990;2023-04-25T07:00:33;4.63;;;2.67;;
3329;SDS011;1677;49.576;10.990;2023-04-25T07:02:59;4.40;;;2.33;;
3329;SDS011;1677;49.576;10.990;2023-04-25T07:05:24;3.17;;;2.40;;
3329;SDS011;1677;49.576;10.990;2023-04-25T07:07:50;4.40;;;3.27;;
3329;SDS011;1677;49.576;10.990;2023-04-25T07:10:15;4.20;;;2.80;;
3329;SDS011;1677;49.576;10.990;2023-04-25T07:12:41;7.07;;;3.70;;
3329;SDS011;1677;49.576;10.990;2023-04-25T07:15:07;3.63;;;3.30;;
3329;SDS011;1677;49.576;10.990;2023-04-25T07:17:34;4.68;;;3.30;;
3329;SDS011;1677;49.576;10.990;2023-04-25T07:20:00;6.50;;;3.53;;
3329;SDS011;1677;49.576;10.990;2023-04-25T07:22:26;5.43;;;3.17;;
3329;SDS011;1677;49.576;10.990;2023-04-25T07:24:51;3.97;;;3.30;;
3329;SDS011;1677;49.576;10.990;2023-04-25T07:27:18;7.43;;;4.05;;
3329;SDS011;1677;49.576;10.990;2023-04-25T07:29:44;4.73;;;3.80;;
3329;SDS011;1677;49.576;10.990;2023-04-25T07:32:09;8.20;;;4.20;;
3329;SDS011;1677;49.576;10.990;2023-04-25T07:34:37;4.28;;;3.80;;
3329;SDS011;1677;49.576;10.990;2023-04-25T07:37:03;4.90;;;3.53;;
3329;SDS011;1677;49.576;10.990;2023-04-25T07:39:29;4.20;;;3.80;;
3329;SDS011;1677;49.576;10.990;2023-04-25T07:41:55;6.93;;;4.37;;
3329;SDS011;1677;49.576;10.990;2023-04-25T07:44:21;7.33;;;4.40;;
3329;SDS011;1677;49.576;10.990;2023-04-25T07:46:47;4.90;;;3.87;;
3329;SDS011;1677;49.576;10.990;2023-04-25T07:49:12;4.17;;;3.27;;
3329;SDS011;1677;49.576;10.990;2023-04-25T07:51:38;5.03;;;3.80;;
3329;SDS011;1677;49.576;10.990;2023-04-25T07:54:03;4.63;;;2.90;;
3329;SDS011;1677;49.576;10.990;2023-04-25T07:56:30;6.53;;;4.90;;
3329;SDS011;1677;49.576;10.990;2023-04-25T07:58:56;3.47;;;3.10;;
3329;SDS011;1677;49.576;10.990;2023-04-25T08:01:21;5.40;;;3.80;;
3329;SDS011;1677;49.576;10.990;2023-04-25T08:03:47;4.07;;;2.90;;
3329;SDS011;1677;49.576;10.990;2023-04-25T08:06:12;5.07;;;3.27;;
3329;SDS011;1677;49.576;10.990;2023-04-25T08:08:38;3.80;;;3.50;;
3329;SDS011;1677;49.576;10.990;2023-04-25T08:11:03;5.77;;;3.40;;
3329;SDS011;1677;49.576;10.990;2023-04-25T08:13:29;4.73;;;3.33;;
3329;SDS011;1677;49.576;10.990;2023-04-25T08:15:54;4.20;;;3.47;;
3329;SDS011;1677;49.576;10.990;2023-04-25T08:18:20;3.93;;;3.40;;
3329;SDS011;1677;49.576;10.990;2023-04-25T08:20:45;3.80;;;3.50;;
3329;SDS011;1677;49.576;10.990;2023-04-25T08:23:12;4.90;;;4.03;;
3329;SDS011;1677;49.576;10.990;2023-04-25T08:25:38;3.77;;;3.40;;
3329;SDS011;1677;49.576;10.990;2023-04-25T08:28:03;4.27;;;3.70;;
3329;SDS011;1677;49.576;10.990;2023-04-25T08:30:30;4.53;;;4.07;;
3329;SDS011;1677;49.576;10.990;2023-04-25T08:32:55;4.80;;;4.13;;
3329;SDS011;1677;49.576;10.990;2023-04-25T08:35:21;5.93;;;4.50;;
3329;SDS011;1677;49.576;10.990;2023-04-25T08:37:47;4.77;;;3.80;;
3329;SDS011;1677;49.576;10.990;2023-04-25T08:40:14;5.77;;;4.43;;
3329;SDS011;1677;49.576;10.990;2023-04-25T08:42:43;5.37;;;4.23;;
3329;SDS011;1677;49.576;10.990;2023-04-25T08:45:09;5.13;;;4.03;;
3329;SDS011;1677;49.576;10.990;2023-04-25T08:47:35;5.53;;;4.60;;
3329;SDS011;1677;49.576;10.990;2023-04-25T08:50:03;5.33;;;4.77;;
3329;SDS011;1677;49.576;10.990;2023-04-25T08:52:32;5.97;;;4.93;;
3329;SDS011;1677;49.576;10.990;2023-04-25T08:55:08;4.47;;;3.50;;
3329;SDS011;1677;49.576;10.990;2023-04-25T08:57:36;6.87;;;4.00;;
3329;SDS011;1677;49.576;10.990;2023-04-25T09:00:02;4.50;;;4.10;;
3329;SDS011;1677;49.576;10.990;2023-04-25T09:02:29;4.83;;;3.40;;
3329;SDS011;1677;49.576;10.990;2023-04-25T09:04:54;3.30;;;3.00;;
3329;SDS011;1677;49.576;10.990;2023-04-25T09:07:21;3.40;;;3.10;;
3329;SDS011;1677;49.576;10.990;2023-04-25T09:09:47;4.37;;;3.20;;
3329;SDS011;1677;49.576;10.990;2023-04-25T09:12:12;3.80;;;3.37;;
3329;SDS011;1677;49.576;10.990;2023-04-25T09:14:38;3.03;;;2.63;;
3329;SDS011;1677;49.576;10.990;2023-04-25T09:17:04;3.10;;;2.87;;
3329;SDS011;1677;49.576;10.990;2023-04-25T09:19:33;4.77;;;2.80;;
3329;SDS011;1677;49.576;10.990;2023-04-25T09:22:00;3.83;;;3.17;;
3329;SDS011;1677;49.576;10.990;2023-04-25T09:24:41;2.50;;;2.30;;
3329;SDS011;1677;49.576;10.990;2023-04-25T09:27:10;7.40;;;3.97;;
3329;SDS011;1677;49.576;10.990;2023-04-25T09:29:38;2.67;;;2.47;;
3329;SDS011;1677;49.576;10.990;2023-04-25T09:32:10;3.30;;;2.93;;
3329;SDS011;1677;49.576;10.990;2023-04-25T09:34:39;3.57;;;2.87;;
3329;SDS011;1677;49.576;10.990;2023-04-25T09:37:07;3.20;;;3.00;;
3329;SDS011;1677;49.576;10.990;2023-04-25T09:39:39;4.20;;;2.70;;
3329;SDS011;1677;49.576;10.990;2023-04-25T09:42:04;2.83;;;2.63;;
3329;SDS011;1677;49.576;10.990;2023-04-25T09:44:30;5.23;;;4.07;;
3329;SDS011;1677;49.576;10.990;2023-04-25T09:46:56;3.50;;;2.92;;
3329;SDS011;1677;49.576;10.990;2023-04-25T09:49:22;3.03;;;2.70;;
3329;SDS011;1677;49.576;10.990;2023-04-25T09:51:58;2.17;;;1.97;;
3329;SDS011;1677;49.576;10.990;2023-04-25T09:54:24;3.67;;;2.23;;
3329;SDS011;1677;49.576;10.990;2023-04-25T09:56:51;2.80;;;2.13;;
3329;SDS011;1677;49.576;10.990;2023-04-25T09:59:21;1.73;;;1.30;;
3329;SDS011;1677;49.576;10.990;2023-04-25T10:01:47;4.33;;;2.17;;
3329;SDS011;1677;49.576;10.990;2023-04-25T10:04:16;4.03;;;2.07;;
3329;SDS011;1677;49.576;10.990;2023-04-25T10:06:48;2.57;;;2.37;;
3329;SDS011;1677;49.576;10.990;2023-04-25T10:09:19;3.20;;;2.27;;
3329;SDS011;1677;49.576;10.990;2023-04-25T10:11:46;3.00;;;2.27;;
3329;SDS011;1677;49.576;10.990;2023-04-25T10:14:16;3.90;;;1.90;;
3329;SDS011;1677;49.576;10.990;2023-04-25T10:16:42;5.17;;;2.23;;
3329;SDS011;1677;49.576;10.990;2023-04-25T10:19:08;3.70;;;1.83;;
3329;SDS011;1677;49.576;10.990;2023-04-25T10:21:35;3.33;;;2.27;;
3329;SDS011;1677;49.576;10.990;2023-04-25T10:24:10;3.00;;;1.77;;
3329;SDS011;1677;49.576;10.990;2023-04-25T10:26:36;4.57;;;2.50;;
3329;SDS011;1677;49.576;10.990;2023-04-25T10:29:02;2.90;;;1.93;;
3329;SDS011;1677;49.576;10.990;2023-04-25T10:31:31;3.53;;;2.00;;
3329;SDS011;1677;49.576;10.990;2023-04-25T10:33:57;2.00;;;1.80;;
3329;SDS011;1677;49.576;10.990;2023-04-25T10:36:24;5.27;;;2.00;;
3329;SDS011;1677;49.576;10.990;2023-04-25T10:38:52;2.50;;;2.10;;
3329;SDS011;1677;49.576;10.990;2023-04-25T10:41:21;2.30;;;1.87;;
3329;SDS011;1677;49.576;10.990;2023-04-25T10:43:48;4.70;;;1.90;;
3329;SDS011;1677;49.576;10.990;2023-04-25T10:46:22;2.43;;;1.70;;
3329;SDS011;1677;49.576;10.990;2023-04-25T10:48:50;2.90;;;1.73;;
3329;SDS011;1677;49.576;10.990;2023-04-25T10:53:44;2.00;;;1.50;;
3329;SDS011;1677;49.576;10.990;2023-04-25T10:56:17;3.10;;;1.70;;
3329;SDS011;1677;49.576;10.990;2023-04-25T10:59:06;3.00;;;1.83;;
3329;SDS011;1677;49.576;10.990;2023-04-25T11:01:41;4.30;;;2.60;;
3329;SDS011;1677;49.576;10.990;2023-04-25T11:09:33;2.40;;;2.20;;
3329;SDS011;1677;49.576;10.990;2023-04-25T11:12:00;2.33;;;1.97;;
3329;SDS011;1677;49.576;10.990;2023-04-25T11:14:26;3.27;;;2.40;;
3329;SDS011;1677;49.576;10.990;2023-04-25T11:16:55;3.07;;;2.23;;
3329;SDS011;1677;49.576;10.990;2023-04-25T11:19:25;2.90;;;2.10;;
3329;SDS011;1677;49.576;10.990;2023-04-25T11:21:54;2.00;;;1.80;;
3329;SDS011;1677;49.576;10.990;2023-04-25T11:24:34;2.70;;;1.93;;
3329;SDS011;1677;49.576;10.990;2023-04-25T11:27:01;2.60;;;1.40;;
3329;SDS011;1677;49.576;10.990;2023-04-25T11:29:29;1.67;;;1.20;;
3329;SDS011;1677;49.576;10.990;2023-04-25T11:31:56;2.70;;;2.20;;
3329;SDS011;1677;49.576;10.990;2023-04-25T11:34:26;1.83;;;1.50;;
3329;SDS011;1677;49.576;10.990;2023-04-25T11:36:55;2.53;;;1.30;;
3329;SDS011;1677;49.576;10.990;2023-04-25T11:39:21;2.50;;;1.20;;
3329;SDS011;1677;49.576;10.990;2023-04-25T11:41:48;3.00;;;1.40;;
3329;SDS011;1677;49.576;10.990;2023-04-25T11:44:17;1.67;;;1.27;;
3329;SDS011;1677;49.576;10.990;2023-04-25T11:46:43;3.37;;;1.53;;
3329;SDS011;1677;49.576;10.990;2023-04-25T11:49:09;1.63;;;1.23;;
3329;SDS011;1677;49.576;10.990;2023-04-25T11:51:44;1.90;;;1.43;;
3329;SDS011;1677;49.576;10.990;2023-04-25T11:54:12;2.07;;;1.53;;
3329;SDS011;1677;49.576;10.990;2023-04-25T11:56:40;3.07;;;1.80;;
3329;SDS011;1677;49.576;10.990;2023-04-25T11:59:07;3.10;;;1.85;;
3329;SDS011;1677;49.576;10.990;2023-04-25T12:01:33;2.37;;;1.70;;
3329;SDS011;1677;49.576;10.990;2023-04-25T12:04:10;2.17;;;1.60;;
3329;SDS011;1677;49.576;10.990;2023-04-25T12:06:37;1.70;;;1.50;;
3329;SDS011;1677;49.576;10.990;2023-04-25T12:09:09;2.07;;;1.50;;
3329;SDS011;1677;49.576;10.990;2023-04-25T12:11:42;2.60;;;1.63;;
3329;SDS011;1677;49.576;10.990;2023-04-25T12:14:11;4.10;;;1.60;;
3329;SDS011;1677;49.576;10.990;2023-04-25T12:16:44;3.03;;;1.50;;
3329;SDS011;1677;49.576;10.990;2023-04-25T12:19:13;1.77;;;1.50;;
3329;SDS011;1677;49.576;10.990;2023-04-25T12:21:39;1.63;;;1.50;;
3329;SDS011;1677;49.576;10.990;2023-04-25T12:24:11;1.53;;;1.43;;
3329;SDS011;1677;49.576;10.990;2023-04-25T12:26:45;2.37;;;1.70;;
3329;SDS011;1677;49.576;10.990;2023-04-25T12:29:16;1.93;;;1.53;;
3329;SDS011;1677;49.576;10.990;2023-04-25T12:31:45;2.13;;;1.50;;
3329;SDS011;1677;49.576;10.990;2023-04-25T12:34:11;2.47;;;1.80;;
3329;SDS011;1677;49.576;10.990;2023-04-25T12:36:37;4.80;;;1.57;;
3329;SDS011;1677;49.576;10.990;2023-04-25T12:39:03;3.00;;;1.73;;
3329;SDS011;1677;49.576;10.990;2023-04-25T12:41:29;2.87;;;1.90;;
3329;SDS011;1677;49.576;10.990;2023-04-25T12:43:55;1.83;;;1.73;;
3329;SDS011;1677;49.576;10.990;2023-04-25T12:46:21;2.70;;;2.10;;
3329;SDS011;1677;49.576;10.990;2023-04-25T12:48:47;2.63;;;1.90;;
3329;SDS011;1677;49.576;10.990;2023-04-25T12:51:13;2.53;;;1.70;;
3329;SDS011;1677;49.576;10.990;2023-04-25T12:53:39;3.30;;;2.00;;
3329;SDS011;1677;49.576;10.990;2023-04-25T12:56:06;3.00;;;2.00;;
3329;SDS011;1677;49.576;10.990;2023-04-25T12:58:32;2.53;;;1.70;;
3329;SDS011;1677;49.576;10.990;2023-04-25T13:00:58;4.00;;;2.17;;
3329;SDS011;1677;49.576;10.990;2023-04-25T13:03:24;4.90;;;1.97;;
3329;SDS011;1677;49.576;10.990;2023-04-25T13:05:50;2.70;;;2.50;;
3329;SDS011;1677;49.576;10.990;2023-04-25T13:08:17;2.77;;;1.90;;
3329;SDS011;1677;49.576;10.990;2023-04-25T13:10:43;5.77;;;2.10;;
3329;SDS011;1677;49.576;10.990;2023-04-25T13:13:09;2.30;;;1.80;;
3329;SDS011;1677;49.576;10.990;2023-04-25T13:15:35;1.80;;;1.60;;
3329;SDS011;1677;49.576;10.990;2023-04-25T13:18:01;1.83;;;1.47;;
3329;SDS011;1677;49.576;10.990;2023-04-25T13:20:28;5.93;;;1.90;;
3329;SDS011;1677;49.576;10.990;2023-04-25T13:22:53;2.63;;;1.93;;
3329;SDS011;1677;49.576;10.990;2023-04-25T13:25:19;3.60;;;2.20;;
3329;SDS011;1677;49.576;10.990;2023-04-25T13:27:44;3.77;;;2.30;;
3329;SDS011;1677;49.576;10.990;2023-04-25T13:30:10;2.27;;;2.00;;
3329;SDS011;1677;49.576;10.990;2023-04-25T13:32:36;4.32;;;2.10;;
3329;SDS011;1677;49.576;10.990;2023-04-25T13:35:03;2.50;;;1.90;;
3329;SDS011;1677;49.576;10.990;2023-04-25T13:37:36;2.70;;;1.77;;
3329;SDS011;1677;49.576;10.990;2023-04-25T13:40:04;1.93;;;1.83;;
3329;SDS011;1677;49.576;10.990;2023-04-25T13:42:32;5.93;;;1.90;;
3329;SDS011;1677;49.576;10.990;2023-04-25T13:44:58;3.80;;;2.93;;
3329;SDS011;1677;49.576;10.990;2023-04-25T13:47:24;2.20;;;2.00;;
3329;SDS011;1677;49.576;10.990;2023-04-25T13:49:51;3.73;;;1.80;;
3329;SDS011;1677;49.576;10.990;2023-04-25T13:52:17;2.40;;;2.17;;
3329;SDS011;1677;49.576;10.990;2023-04-25T13:54:42;4.43;;;2.10;;
3329;SDS011;1677;49.576;10.990;2023-04-25T13:57:08;2.37;;;1.90;;
3329;SDS011;1677;49.576;10.990;2023-04-25T13:59:35;3.10;;;2.10;;
3329;SDS011;1677;49.576;10.990;2023-04-25T14:02:00;5.13;;;2.50;;
3329;SDS011;1677;49.576;10.990;2023-04-25T14:04:26;2.63;;;2.10;;
3329;SDS011;1677;49.576;10.990;2023-04-25T14:06:52;2.60;;;2.40;;
3329;SDS011;1677;49.576;10.990;2023-04-25T14:09:18;2.77;;;2.50;;
3329;SDS011;1677;49.576;10.990;2023-04-25T14:11:47;4.47;;;2.77;;
3329;SDS011;1677;49.576;10.990;2023-04-25T14:14:13;2.47;;;2.20;;
3329;SDS011;1677;49.576;10.990;2023-04-25T14:16:41;3.90;;;2.60;;
3329;SDS011;1677;49.576;10.990;2023-04-25T14:19:06;2.60;;;2.10;;
3329;SDS011;1677;49.576;10.990;2023-04-25T14:21:32;3.03;;;2.60;;
3329;SDS011;1677;49.576;10.990;2023-04-25T14:23:58;4.45;;;2.85;;
3329;SDS011;1677;49.576;10.990;2023-04-25T14:26:23;2.93;;;2.50;;
3329;SDS011;1677;49.576;10.990;2023-04-25T14:28:49;2.93;;;2.63;;
3329;SDS011;1677;49.576;10.990;2023-04-25T14:31:16;4.20;;;2.37;;
3329;SDS011;1677;49.576;10.990;2023-04-25T14:33:42;3.63;;;2.77;;
3329;SDS011;1677;49.576;10.990;2023-04-25T14:36:07;2.57;;;2.37;;
3329;SDS011;1677;49.576;10.990;2023-04-25T14:38:33;4.23;;;3.00;;
3329;SDS011;1677;49.576;10.990;2023-04-25T14:40:58;2.93;;;2.50;;
3329;SDS011;1677;49.576;10.990;2023-04-25T14:43:24;3.10;;;2.40;;
3329;SDS011;1677;49.576;10.990;2023-04-25T14:45:50;3.40;;;2.33;;
3329;SDS011;1677;49.576;10.990;2023-04-25T14:48:15;5.10;;;3.00;;
3329;SDS011;1677;49.576;10.990;2023-04-25T14:50:44;4.67;;;2.80;;
3329;SDS011;1677;49.576;10.990;2023-04-25T14:53:10;5.60;;;2.90;;
3329;SDS011;1677;49.576;10.990;2023-04-25T14:55:36;3.73;;;2.83;;
3329;SDS011;1677;49.576;10.990;2023-04-25T14:58:01;4.07;;;2.80;;
3329;SDS011;1677;49.576;10.990;2023-04-25T15:00:27;4.03;;;2.43;;
3329;SDS011;1677;49.576;10.990;2023-04-25T15:02:52;5.90;;;2.70;;
3329;SDS011;1677;49.576;10.990;2023-04-25T15:05:18;2.70;;;2.00;;